sensor_id;sensor_type;location;lat;lon;timestamp;P1;durP1;ratioP1;P2;durP2;ratioP2
3659;SDS011;1846;51.482;7.224;2023-04-24T00:00:35;2.47;;;0.90;;
3659;SDS011;1846;51.482;7.224;2023-04-24T00:03:08;1.95;;;0.95;;
3659;SDS011;1846;51.482;7.224;2023-04-24T00:05:40;1.00;;;0.77;;
3659;SDS011;1846;51.482;7.224;2023-04-24T00:08:09;1.10;;;0.88;;
3659;SDS011;1846;51.482;7.224;2023-04-24T00:10:36;1.50;;;1.00;;
3659;SDS011;1846;51.482;7.224;2023-04-24T00:13:03;0.90;;;0.80;;
3659;SDS011;1846;51.482;7.224;2023-04-24T00:15:30;1.50;;;0.90;;
3659;SDS011;1846;51.482;7.224;2023-04-24T00:17:58;1.63;;;0.93;;
3659;SDS011;1846;51.482;7.224;2023-04-24T00:20:26;0.90;;;0.80;;
3659;SDS011;1846;51.482;7.224;2023-04-24T00:22:56;1.10;;;0.70;;
3659;SDS011;1846;51.482;7.224;2023-04-24T00:25:27;1.00;;;0.90;;
3659;SDS011;1846;51.482;7.224;2023-04-24T00:27:55;2.00;;;1.00;;
3659;SDS011;1846;51.482;7.224;2023-04-24T00:30:22;1.17;;;0.95;;
3659;SDS011;1846;51.482;7.224;2023-04-24T00:32:49;1.50;;;0.90;;
3659;SDS011;1846;51.482;7.224;2023-04-24T00:35:17;1.10;;;1.00;;
3659;SDS011;1846;51.482;7.224;2023-04-24T00:37:45;1.05;;;0.95;;
3659;SDS011;1846;51.482;7.224;2023-04-24T00:40:13;1.30;;;1.10;;
3659;SDS011;1846;51.482;7.224;2023-04-24T00:42:42;1.10;;;1.00;;
3659;SDS011;1846;51.482;7.224;2023-04-24T00:45:10;1.10;;;0.90;;
3659;SDS011;1846;51.482;7.224;2023-04-24T00:47:37;0.90;;;0.90;;
3659;SDS011;1846;51.482;7.224;2023-04-24T00:50:05;1.50;;;1.40;;
3659;SDS011;1846;51.482;7.224;2023-04-24T00:52:38;1.00;;;0.90;;
3659;SDS011;1846;51.482;7.224;2023-04-24T00:55:06;1.10;;;1.00;;
3659;SDS011;1846;51.482;7.224;2023-04-24T00:57:36;1.40;;;1.00;;
3659;SDS011;1846;51.482;7.224;2023-04-24T01:00:08;1.10;;;0.93;;
3659;SDS011;1846;51.482;7.224;2023-04-24T01:02:40;1.10;;;1.00;;
3659;SDS011;1846;51.482;7.224;2023-04-24T01:05:10;1.58;;;1.17;;
3659;SDS011;1846;51.482;7.224;2023-04-24T01:07:38;1.73;;;1.20;;
3659;SDS011;1846;51.482;7.224;2023-04-24T01:10:10;1.30;;;1.10;;
3659;SDS011;1846;51.482;7.224;2023-04-24T01:12:42;2.42;;;1.40;;
3659;SDS011;1846;51.482;7.224;2023-04-24T01:15:11;1.70;;;1.60;;
3659;SDS011;1846;51.482;7.224;2023-04-24T01:17:38;2.40;;;1.30;;
3659;SDS011;1846;51.482;7.224;2023-04-24T01:20:07;1.60;;;1.20;;
3659;SDS011;1846;51.482;7.224;2023-04-24T01:22:37;1.70;;;1.50;;
3659;SDS011;1846;51.482;7.224;2023-04-24T01:25:04;1.20;;;1.10;;
3659;SDS011;1846;51.482;7.224;2023-04-24T01:27:34;2.80;;;1.40;;
3659;SDS011;1846;51.482;7.224;2023-04-24T01:30:02;1.40;;;1.30;;
3659;SDS011;1846;51.482;7.224;2023-04-24T01:32:33;1.40;;;1.23;;
3659;SDS011;1846;51.482;7.224;2023-04-24T01:35:00;2.00;;;1.30;;
3659;SDS011;1846;51.482;7.224;2023-04-24T01:37:27;2.30;;;1.55;;
3659;SDS011;1846;51.482;7.224;2023-04-24T01:39:56;2.00;;;1.70;;
3659;SDS011;1846;51.482;7.224;2023-04-24T01:42:23;1.63;;;1.52;;
3659;SDS011;1846;51.482;7.224;2023-04-24T01:44:50;2.90;;;1.85;;
3659;SDS011;1846;51.482;7.224;2023-04-24T01:47:17;2.80;;;1.60;;
3659;SDS011;1846;51.482;7.224;2023-04-24T01:49:47;2.40;;;1.93;;
3659;SDS011;1846;51.482;7.224;2023-04-24T01:52:17;3.13;;;1.70;;
3659;SDS011;1846;51.482;7.224;2023-04-24T01:54:44;3.93;;;1.70;;
3659;SDS011;1846;51.482;7.224;2023-04-24T01:57:12;1.77;;;1.67;;
3659;SDS011;1846;51.482;7.224;2023-04-24T01:59:40;3.20;;;1.80;;
3659;SDS011;1846;51.482;7.224;2023-04-24T02:02:07;2.80;;;2.08;;
3659;SDS011;1846;51.482;7.224;2023-04-24T02:04:34;2.40;;;2.20;;
3659;SDS011;1846;51.482;7.224;2023-04-24T02:07:01;3.30;;;2.33;;
3659;SDS011;1846;51.482;7.224;2023-04-24T02:09:28;2.95;;;2.30;;
3659;SDS011;1846;51.482;7.224;2023-04-24T02:11:55;5.50;;;3.40;;
3659;SDS011;1846;51.482;7.224;2023-04-24T02:14:23;2.83;;;2.60;;
3659;SDS011;1846;51.482;7.224;2023-04-24T02:16:56;3.00;;;2.80;;
3659;SDS011;1846;51.482;7.224;2023-04-24T02:19:23;4.10;;;3.50;;
3659;SDS011;1846;51.482;7.224;2023-04-24T02:21:50;4.95;;;3.83;;
3659;SDS011;1846;51.482;7.224;2023-04-24T02:24:17;7.20;;;5.00;;
3659;SDS011;1846;51.482;7.224;2023-04-24T02:26:44;6.00;;;5.28;;
3659;SDS011;1846;51.482;7.224;2023-04-24T02:29:11;5.50;;;4.82;;
3659;SDS011;1846;51.482;7.224;2023-04-24T02:31:39;6.30;;;5.30;;
3659;SDS011;1846;51.482;7.224;2023-04-24T02:34:09;6.47;;;5.85;;
3659;SDS011;1846;51.482;7.224;2023-04-24T02:36:39;9.20;;;6.00;;
3659;SDS011;1846;51.482;7.224;2023-04-24T02:39:07;9.77;;;6.37;;
3659;SDS011;1846;51.482;7.224;2023-04-24T02:41:34;7.50;;;6.50;;
3659;SDS011;1846;51.482;7.224;2023-04-24T02:44:01;9.20;;;6.87;;
3659;SDS011;1846;51.482;7.224;2023-04-24T02:46:28;8.00;;;6.80;;
3659;SDS011;1846;51.482;7.224;2023-04-24T02:48:56;7.15;;;6.55;;
3659;SDS011;1846;51.482;7.224;2023-04-24T02:51:23;8.45;;;6.30;;
3659;SDS011;1846;51.482;7.224;2023-04-24T02:53:50;8.32;;;7.53;;
3659;SDS011;1846;51.482;7.224;2023-04-24T02:56:17;13.07;;;7.22;;
3659;SDS011;1846;51.482;7.224;2023-04-24T02:58:48;7.95;;;7.05;;
3659;SDS011;1846;51.482;7.224;2023-04-24T03:01:15;9.00;;;7.55;;
3659;SDS011;1846;51.482;7.224;2023-04-24T03:03:44;9.43;;;8.00;;
3659;SDS011;1846;51.482;7.224;2023-04-24T03:06:13;11.20;;;8.03;;
3659;SDS011;1846;51.482;7.224;2023-04-24T03:08:40;8.45;;;7.60;;
3659;SDS011;1846;51.482;7.224;2023-04-24T03:11:07;8.50;;;7.35;;
3659;SDS011;1846;51.482;7.224;2023-04-24T03:13:34;11.63;;;7.85;;
3659;SDS011;1846;51.482;7.224;2023-04-24T03:16:01;10.18;;;7.80;;
3659;SDS011;1846;51.482;7.224;2023-04-24T03:18:28;9.05;;;7.93;;
3659;SDS011;1846;51.482;7.224;2023-04-24T03:20:55;10.50;;;8.10;;
3659;SDS011;1846;51.482;7.224;2023-04-24T03:23:23;12.82;;;8.80;;
3659;SDS011;1846;51.482;7.224;2023-04-24T03:25:50;8.70;;;7.80;;
3659;SDS011;1846;51.482;7.224;2023-04-24T03:28:17;9.50;;;8.15;;
3659;SDS011;1846;51.482;7.224;2023-04-24T03:30:44;10.60;;;8.77;;
3659;SDS011;1846;51.482;7.224;2023-04-24T03:33:12;12.48;;;8.80;;
3659;SDS011;1846;51.482;7.224;2023-04-24T03:35:38;12.95;;;9.70;;
3659;SDS011;1846;51.482;7.224;2023-04-24T03:38:06;11.27;;;8.88;;
3659;SDS011;1846;51.482;7.224;2023-04-24T03:40:34;13.23;;;8.33;;
3659;SDS011;1846;51.482;7.224;2023-04-24T03:43:03;10.18;;;8.38;;
3659;SDS011;1846;51.482;7.224;2023-04-24T03:45:38;12.50;;;8.70;;
3659;SDS011;1846;51.482;7.224;2023-04-24T03:48:05;12.05;;;8.10;;
3659;SDS011;1846;51.482;7.224;2023-04-24T03:50:32;9.60;;;8.30;;
3659;SDS011;1846;51.482;7.224;2023-04-24T03:53:01;10.80;;;8.10;;
3659;SDS011;1846;51.482;7.224;2023-04-24T03:55:28;11.27;;;9.00;;
3659;SDS011;1846;51.482;7.224;2023-04-24T03:57:57;14.27;;;9.55;;
3659;SDS011;1846;51.482;7.224;2023-04-24T04:00:23;11.50;;;9.57;;
3659;SDS011;1846;51.482;7.224;2023-04-24T04:02:51;13.30;;;9.52;;
3659;SDS011;1846;51.482;7.224;2023-04-24T04:05:19;13.05;;;10.88;;
3659;SDS011;1846;51.482;7.224;2023-04-24T04:07:46;12.18;;;9.88;;
3659;SDS011;1846;51.482;7.224;2023-04-24T04:10:14;14.18;;;10.23;;
3659;SDS011;1846;51.482;7.224;2023-04-24T04:12:42;12.93;;;10.00;;
3659;SDS011;1846;51.482;7.224;2023-04-24T04:15:13;12.30;;;9.52;;
3659;SDS011;1846;51.482;7.224;2023-04-24T04:17:41;13.50;;;10.00;;
3659;SDS011;1846;51.482;7.224;2023-04-24T04:20:08;12.13;;;9.40;;
3659;SDS011;1846;51.482;7.224;2023-04-24T04:22:35;12.80;;;9.00;;
3659;SDS011;1846;51.482;7.224;2023-04-24T04:25:06;14.48;;;10.27;;
3659;SDS011;1846;51.482;7.224;2023-04-24T04:27:34;12.35;;;9.38;;
3659;SDS011;1846;51.482;7.224;2023-04-24T04:30:01;11.97;;;9.17;;
3659;SDS011;1846;51.482;7.224;2023-04-24T04:32:31;13.88;;;9.43;;
3659;SDS011;1846;51.482;7.224;2023-04-24T04:34:59;15.05;;;9.40;;
3659;SDS011;1846;51.482;7.224;2023-04-24T04:37:28;14.70;;;10.07;;
3659;SDS011;1846;51.482;7.224;2023-04-24T04:39:55;14.50;;;9.35;;
3659;SDS011;1846;51.482;7.224;2023-04-24T04:42:23;14.23;;;10.10;;
3659;SDS011;1846;51.482;7.224;2023-04-24T04:44:50;13.10;;;10.20;;
3659;SDS011;1846;51.482;7.224;2023-04-24T04:47:21;16.73;;;10.05;;
3659;SDS011;1846;51.482;7.224;2023-04-24T04:49:50;11.77;;;9.77;;
3659;SDS011;1846;51.482;7.224;2023-04-24T04:52:17;13.07;;;9.60;;
3659;SDS011;1846;51.482;7.224;2023-04-24T04:54:45;13.07;;;9.70;;
3659;SDS011;1846;51.482;7.224;2023-04-24T04:57:12;11.10;;;9.90;;
3659;SDS011;1846;51.482;7.224;2023-04-24T04:59:39;15.75;;;10.68;;
3659;SDS011;1846;51.482;7.224;2023-04-24T05:02:06;13.68;;;10.45;;
3659;SDS011;1846;51.482;7.224;2023-04-24T05:04:35;12.82;;;10.13;;
3659;SDS011;1846;51.482;7.224;2023-04-24T05:07:06;15.40;;;10.32;;
3659;SDS011;1846;51.482;7.224;2023-04-24T05:09:51;11.95;;;9.85;;
3659;SDS011;1846;51.482;7.224;2023-04-24T05:12:21;12.55;;;10.32;;
3659;SDS011;1846;51.482;7.224;2023-04-24T05:23:26;11.25;;;9.18;;
3659;SDS011;1846;51.482;7.224;2023-04-24T05:29:14;42.03;;;34.37;;
3659;SDS011;1846;51.482;7.224;2023-04-24T05:37:12;12.20;;;8.60;;
3659;SDS011;1846;51.482;7.224;2023-04-24T05:39:42;11.68;;;8.88;;
3659;SDS011;1846;51.482;7.224;2023-04-24T05:42:12;12.00;;;9.20;;
3659;SDS011;1846;51.482;7.224;2023-04-24T05:44:41;10.77;;;8.13;;
3659;SDS011;1846;51.482;7.224;2023-04-24T05:47:40;9.80;;;8.80;;
3659;SDS011;1846;51.482;7.224;2023-04-24T05:50:39;12.23;;;9.45;;
3659;SDS011;1846;51.482;7.224;2023-04-24T05:53:14;14.40;;;10.43;;
3659;SDS011;1846;51.482;7.224;2023-04-24T05:55:46;11.88;;;10.60;;
3659;SDS011;1846;51.482;7.224;2023-04-24T05:58:35;12.40;;;10.43;;
3659;SDS011;1846;51.482;7.224;2023-04-24T06:01:38;17.60;;;10.90;;
3659;SDS011;1846;51.482;7.224;2023-04-24T06:04:44;53.30;;;14.43;;
3659;SDS011;1846;51.482;7.224;2023-04-24T06:07:36;98.50;;;24.40;;
3659;SDS011;1846;51.482;7.224;2023-04-24T06:10:33;66.43;;;16.50;;
3659;SDS011;1846;51.482;7.224;2023-04-24T06:13:29;124.45;;;21.33;;
3659;SDS011;1846;51.482;7.224;2023-04-24T06:15:59;118.28;;;21.92;;
3659;SDS011;1846;51.482;7.224;2023-04-24T06:21:11;101.78;;;19.58;;
3659;SDS011;1846;51.482;7.224;2023-04-24T06:24:04;57.38;;;14.50;;
3659;SDS011;1846;51.482;7.224;2023-04-24T06:26:47;73.45;;;17.48;;
3659;SDS011;1846;51.482;7.224;2023-04-24T06:32:28;83.57;;;18.42;;
3659;SDS011;1846;51.482;7.224;2023-04-24T06:35:07;34.80;;;11.75;;
3659;SDS011;1846;51.482;7.224;2023-04-24T06:41:24;31.65;;;10.85;;
3659;SDS011;1846;51.482;7.224;2023-04-24T06:44:22;46.72;;;11.98;;
3659;SDS011;1846;51.482;7.224;2023-04-24T06:46:49;41.72;;;14.30;;
3659;SDS011;1846;51.482;7.224;2023-04-24T06:52:58;192.30;;;26.23;;
3659;SDS011;1846;51.482;7.224;2023-04-24T06:55:26;138.23;;;21.83;;
3659;SDS011;1846;51.482;7.224;2023-04-24T06:58:17;67.10;;;14.97;;
3659;SDS011;1846;51.482;7.224;2023-04-24T07:01:54;84.63;;;19.38;;
3659;SDS011;1846;51.482;7.224;2023-04-24T07:25:55;23.20;;;8.30;;
3659;SDS011;1846;51.482;7.224;2023-04-24T07:31:07;13.10;;;4.47;;
3659;SDS011;1846;51.482;7.224;2023-04-24T07:33:41;7.90;;;3.75;;
3659;SDS011;1846;51.482;7.224;2023-04-24T07:37:08;9.00;;;3.40;;
3659;SDS011;1846;51.482;7.224;2023-04-24T07:43:31;8.88;;;3.65;;
3659;SDS011;1846;51.482;7.224;2023-04-24T07:49:23;5.97;;;3.75;;
3659;SDS011;1846;51.482;7.224;2023-04-24T07:51:55;10.52;;;4.22;;
3659;SDS011;1846;51.482;7.224;2023-04-24T08:04:17;6.90;;;2.42;;
3659;SDS011;1846;51.482;7.224;2023-04-24T08:06:51;6.30;;;2.80;;
3659;SDS011;1846;51.482;7.224;2023-04-24T08:23:31;58.63;;;9.15;;
3659;SDS011;1846;51.482;7.224;2023-04-24T08:26:03;71.72;;;9.40;;
3659;SDS011;1846;51.482;7.224;2023-04-24T08:28:36;34.15;;;4.47;;
3659;SDS011;1846;51.482;7.224;2023-04-24T08:31:09;118.28;;;13.52;;
3659;SDS011;1846;51.482;7.224;2023-04-24T08:33:53;32.75;;;6.35;;
3659;SDS011;1846;51.482;7.224;2023-04-24T08:36:25;152.05;;;20.50;;
3659;SDS011;1846;51.482;7.224;2023-04-24T08:39:04;14.38;;;3.70;;
3659;SDS011;1846;51.482;7.224;2023-04-24T08:41:34;65.55;;;8.73;;
3659;SDS011;1846;51.482;7.224;2023-04-24T11:43:57;22.63;;;9.18;;
3659;SDS011;1846;51.482;7.224;2023-04-24T11:46:44;18.90;;;8.27;;
3659;SDS011;1846;51.482;7.224;2023-04-24T12:27:44;16.02;;;6.30;;
3659;SDS011;1846;51.482;7.224;2023-04-24T12:39:32;9.07;;;4.80;;
3659;SDS011;1846;51.482;7.224;2023-04-24T12:42:14;12.85;;;4.38;;
3659;SDS011;1846;51.482;7.224;2023-04-24T13:27:59;6.70;;;3.00;;
3659;SDS011;1846;51.482;7.224;2023-04-24T13:31:49;5.93;;;3.20;;
3659;SDS011;1846;51.482;7.224;2023-04-24T13:37:24;6.82;;;2.30;;
3659;SDS011;1846;51.482;7.224;2023-04-24T13:40:02;2.35;;;1.80;;
3659;SDS011;1846;51.482;7.224;2023-04-24T13:42:32;3.17;;;2.33;;
3659;SDS011;1846;51.482;7.224;2023-04-24T13:45:04;6.15;;;2.50;;
3659;SDS011;1846;51.482;7.224;2023-04-24T13:47:41;3.72;;;2.10;;
3659;SDS011;1846;51.482;7.224;2023-04-24T13:54:05;3.67;;;1.90;;
3659;SDS011;1846;51.482;7.224;2023-04-24T13:56:41;4.00;;;1.60;;
3659;SDS011;1846;51.482;7.224;2023-04-24T13:59:14;3.00;;;1.80;;
3659;SDS011;1846;51.482;7.224;2023-04-24T14:02:07;3.00;;;1.80;;
3659;SDS011;1846;51.482;7.224;2023-04-24T14:04:53;2.97;;;1.40;;
3659;SDS011;1846;51.482;7.224;2023-04-24T14:08:08;3.40;;;1.60;;
3659;SDS011;1846;51.482;7.224;2023-04-24T14:11:08;2.40;;;2.20;;
3659;SDS011;1846;51.482;7.224;2023-04-24T14:14:15;4.72;;;2.05;;
3659;SDS011;1846;51.482;7.224;2023-04-24T14:18:11;4.53;;;1.80;;
3659;SDS011;1846;51.482;7.224;2023-04-24T14:20:08;2.25;;;1.30;;
3659;SDS011;1846;51.482;7.224;2023-04-24T14:26:11;5.32;;;2.08;;
3659;SDS011;1846;51.482;7.224;2023-04-24T14:28:55;3.85;;;1.48;;
3659;SDS011;1846;51.482;7.224;2023-04-24T14:35:13;3.60;;;2.60;;
3659;SDS011;1846;51.482;7.224;2023-04-24T14:37:59;4.00;;;1.80;;
3659;SDS011;1846;51.482;7.224;2023-04-24T14:40:54;3.35;;;2.05;;
3659;SDS011;1846;51.482;7.224;2023-04-24T14:43:32;3.70;;;2.10;;
3659;SDS011;1846;51.482;7.224;2023-04-24T14:46:07;3.00;;;2.05;;
3659;SDS011;1846;51.482;7.224;2023-04-24T14:49:25;3.63;;;2.20;;
3659;SDS011;1846;51.482;7.224;2023-04-24T14:55:02;7.65;;;2.20;;
3659;SDS011;1846;51.482;7.224;2023-04-24T14:58:44;3.95;;;1.90;;
3659;SDS011;1846;51.482;7.224;2023-04-24T15:00:51;2.17;;;1.70;;
3659;SDS011;1846;51.482;7.224;2023-04-24T15:03:53;4.05;;;2.58;;
3659;SDS011;1846;51.482;7.224;2023-04-24T15:06:16;2.70;;;2.00;;
3659;SDS011;1846;51.482;7.224;2023-04-24T15:08:43;2.40;;;2.20;;
3659;SDS011;1846;51.482;7.224;2023-04-24T15:14:18;4.95;;;2.63;;
3659;SDS011;1846;51.482;7.224;2023-04-24T15:17:11;3.42;;;2.90;;
3659;SDS011;1846;51.482;7.224;2023-04-24T15:19:47;4.80;;;3.60;;
3659;SDS011;1846;51.482;7.224;2023-04-24T15:22:42;4.95;;;4.03;;
3659;SDS011;1846;51.482;7.224;2023-04-24T15:25:55;3.60;;;3.30;;
3659;SDS011;1846;51.482;7.224;2023-04-24T15:28:32;3.88;;;2.53;;
3659;SDS011;1846;51.482;7.224;2023-04-24T15:31:10;6.97;;;4.95;;
3659;SDS011;1846;51.482;7.224;2023-04-24T15:33:50;4.53;;;3.60;;
3659;SDS011;1846;51.482;7.224;2023-04-24T15:36:42;8.00;;;4.30;;
3659;SDS011;1846;51.482;7.224;2023-04-24T15:39:14;4.13;;;3.08;;
3659;SDS011;1846;51.482;7.224;2023-04-24T15:41:52;5.20;;;3.10;;
3659;SDS011;1846;51.482;7.224;2023-04-24T15:44:39;6.30;;;2.40;;
3659;SDS011;1846;51.482;7.224;2023-04-24T15:50:42;2.78;;;1.90;;
3659;SDS011;1846;51.482;7.224;2023-04-24T15:53:26;2.50;;;2.30;;
3659;SDS011;1846;51.482;7.224;2023-04-24T15:56:23;4.35;;;2.17;;
3659;SDS011;1846;51.482;7.224;2023-04-24T15:58:55;1.60;;;1.50;;
3659;SDS011;1846;51.482;7.224;2023-04-24T16:01:31;2.20;;;1.90;;
3659;SDS011;1846;51.482;7.224;2023-04-24T16:04:02;2.53;;;1.70;;
3659;SDS011;1846;51.482;7.224;2023-04-24T16:06:47;3.50;;;1.77;;
3659;SDS011;1846;51.482;7.224;2023-04-24T16:09:25;3.63;;;1.80;;
3659;SDS011;1846;51.482;7.224;2023-04-24T16:15:30;5.32;;;2.40;;
3659;SDS011;1846;51.482;7.224;2023-04-24T16:18:33;3.70;;;1.60;;
3659;SDS011;1846;51.482;7.224;2023-04-24T16:21:35;3.20;;;1.85;;
3659;SDS011;1846;51.482;7.224;2023-04-24T16:24:05;3.17;;;1.50;;
3659;SDS011;1846;51.482;7.224;2023-04-24T16:26:53;2.83;;;1.30;;
3659;SDS011;1846;51.482;7.224;2023-04-24T16:30:30;2.73;;;1.60;;
3659;SDS011;1846;51.482;7.224;2023-04-24T16:47:18;4.50;;;1.88;;
3659;SDS011;1846;51.482;7.224;2023-04-24T16:50:02;2.45;;;1.70;;
3659;SDS011;1846;51.482;7.224;2023-04-24T16:52:58;2.10;;;1.90;;
3659;SDS011;1846;51.482;7.224;2023-04-24T16:59:07;5.70;;;2.05;;
3659;SDS011;1846;51.482;7.224;2023-04-24T17:02:11;6.70;;;4.03;;
3659;SDS011;1846;51.482;7.224;2023-04-24T17:05:01;4.70;;;2.77;;
3659;SDS011;1846;51.482;7.224;2023-04-24T17:07:42;4.55;;;3.47;;
3659;SDS011;1846;51.482;7.224;2023-04-24T17:10:19;4.60;;;2.70;;
3659;SDS011;1846;51.482;7.224;2023-04-24T17:12:56;3.30;;;3.00;;
3659;SDS011;1846;51.482;7.224;2023-04-24T17:15:27;3.80;;;2.10;;
3659;SDS011;1846;51.482;7.224;2023-04-24T17:18:24;2.50;;;2.10;;
3659;SDS011;1846;51.482;7.224;2023-04-24T17:21:23;7.82;;;3.15;;
3659;SDS011;1846;51.482;7.224;2023-04-24T17:24:18;5.70;;;5.10;;
3659;SDS011;1846;51.482;7.224;2023-04-24T17:27:16;3.45;;;3.10;;
3659;SDS011;1846;51.482;7.224;2023-04-24T17:30:25;12.18;;;4.80;;
3659;SDS011;1846;51.482;7.224;2023-04-24T17:39:10;7.40;;;2.10;;
3659;SDS011;1846;51.482;7.224;2023-04-24T17:42:13;2.70;;;2.40;;
3659;SDS011;1846;51.482;7.224;2023-04-24T17:44:55;3.70;;;2.17;;
3659;SDS011;1846;51.482;7.224;2023-04-24T17:50:18;4.28;;;2.72;;
3659;SDS011;1846;51.482;7.224;2023-04-24T17:52:51;2.40;;;2.20;;
3659;SDS011;1846;51.482;7.224;2023-04-24T17:55:28;6.17;;;2.60;;
3659;SDS011;1846;51.482;7.224;2023-04-24T17:58:12;5.65;;;3.03;;
3659;SDS011;1846;51.482;7.224;2023-04-24T18:00:47;3.97;;;2.13;;
3659;SDS011;1846;51.482;7.224;2023-04-24T18:03:24;4.70;;;2.95;;
3659;SDS011;1846;51.482;7.224;2023-04-24T18:06:15;6.50;;;2.50;;
3659;SDS011;1846;51.482;7.224;2023-04-24T18:09:08;8.00;;;3.78;;
3659;SDS011;1846;51.482;7.224;2023-04-24T18:11:58;6.07;;;3.20;;
3659;SDS011;1846;51.482;7.224;2023-04-24T18:14:53;6.75;;;3.80;;
3659;SDS011;1846;51.482;7.224;2023-04-24T18:17:25;8.90;;;3.42;;
3659;SDS011;1846;51.482;7.224;2023-04-24T18:20:21;9.95;;;3.60;;
3659;SDS011;1846;51.482;7.224;2023-04-24T18:26:14;7.80;;;3.50;;
3659;SDS011;1846;51.482;7.224;2023-04-24T18:29:05;4.07;;;2.97;;
3659;SDS011;1846;51.482;7.224;2023-04-24T18:33:52;5.68;;;3.20;;
3659;SDS011;1846;51.482;7.224;2023-04-24T18:35:12;7.32;;;3.67;;
3659;SDS011;1846;51.482;7.224;2023-04-24T18:37:46;9.80;;;3.80;;
3659;SDS011;1846;51.482;7.224;2023-04-24T18:40:22;7.88;;;3.55;;
3659;SDS011;1846;51.482;7.224;2023-04-24T18:45:30;8.68;;;3.47;;
3659;SDS011;1846;51.482;7.224;2023-04-24T18:48:03;8.25;;;3.45;;
3659;SDS011;1846;51.482;7.224;2023-04-24T18:50:50;7.68;;;3.65;;
3659;SDS011;1846;51.482;7.224;2023-04-24T18:53:18;9.85;;;4.50;;
3659;SDS011;1846;51.482;7.224;2023-04-24T18:55:56;9.10;;;4.03;;
3659;SDS011;1846;51.482;7.224;2023-04-24T18:58:32;5.47;;;3.50;;
3659;SDS011;1846;51.482;7.224;2023-04-24T19:04:54;4.80;;;3.25;;
3659;SDS011;1846;51.482;7.224;2023-04-24T19:14:02;5.78;;;3.60;;
3659;SDS011;1846;51.482;7.224;2023-04-24T19:17:28;7.53;;;3.67;;
3659;SDS011;1846;51.482;7.224;2023-04-24T19:20:18;5.28;;;3.00;;
3659;SDS011;1846;51.482;7.224;2023-04-24T19:29:36;7.30;;;4.10;;
3659;SDS011;1846;51.482;7.224;2023-04-24T19:35:14;7.18;;;4.00;;
3659;SDS011;1846;51.482;7.224;2023-04-24T19:38:00;7.90;;;3.80;;
3659;SDS011;1846;51.482;7.224;2023-04-24T19:53:22;7.00;;;3.20;;
3659;SDS011;1846;51.482;7.224;2023-04-24T20:12:30;11.05;;;5.20;;
3659;SDS011;1846;51.482;7.224;2023-04-24T20:18:18;10.23;;;5.17;;
3659;SDS011;1846;51.482;7.224;2023-04-24T20:20:56;10.80;;;5.20;;
3659;SDS011;1846;51.482;7.224;2023-04-24T20:23:34;10.05;;;4.25;;
3659;SDS011;1846;51.482;7.224;2023-04-24T20:26:40;7.50;;;4.50;;
3659;SDS011;1846;51.482;7.224;2023-04-24T20:29:21;10.70;;;5.00;;
3659;SDS011;1846;51.482;7.224;2023-04-24T20:32:50;10.32;;;4.80;;
3659;SDS011;1846;51.482;7.224;2023-04-24T20:36:34;10.93;;;5.30;;
3659;SDS011;1846;51.482;7.224;2023-04-24T20:38:39;9.32;;;5.55;;
3659;SDS011;1846;51.482;7.224;2023-04-24T20:42:24;13.07;;;5.13;;
3659;SDS011;1846;51.482;7.224;2023-04-24T20:47:49;10.57;;;5.20;;
3659;SDS011;1846;51.482;7.224;2023-04-24T20:53:24;5.65;;;4.60;;
3659;SDS011;1846;51.482;7.224;2023-04-24T20:56:13;9.50;;;5.30;;
3659;SDS011;1846;51.482;7.224;2023-04-24T20:58:59;9.38;;;4.50;;
3659;SDS011;1846;51.482;7.224;2023-04-24T21:05:04;9.53;;;5.40;;
3659;SDS011;1846;51.482;7.224;2023-04-24T21:08:11;10.68;;;5.47;;
3659;SDS011;1846;51.482;7.224;2023-04-24T21:10:53;11.07;;;5.00;;
3659;SDS011;1846;51.482;7.224;2023-04-24T21:13:47;10.00;;;5.10;;
3659;SDS011;1846;51.482;7.224;2023-04-24T21:19:35;11.85;;;5.28;;
3659;SDS011;1846;51.482;7.224;2023-04-24T21:22:22;11.23;;;5.10;;
3659;SDS011;1846;51.482;7.224;2023-04-24T21:25:15;15.40;;;5.60;;
3659;SDS011;1846;51.482;7.224;2023-04-24T21:31:03;7.70;;;5.55;;
3659;SDS011;1846;51.482;7.224;2023-04-24T21:33:57;11.55;;;5.20;;
3659;SDS011;1846;51.482;7.224;2023-04-24T21:36:52;9.35;;;5.45;;
3659;SDS011;1846;51.482;7.224;2023-04-24T21:39:21;12.80;;;6.23;;
3659;SDS011;1846;51.482;7.224;2023-04-24T21:42:08;15.02;;;5.80;;
3659;SDS011;1846;51.482;7.224;2023-04-24T21:45:13;14.43;;;6.20;;
3659;SDS011;1846;51.482;7.224;2023-04-24T21:47:55;11.95;;;5.70;;
3659;SDS011;1846;51.482;7.224;2023-04-24T21:51:06;6.70;;;5.10;;
3659;SDS011;1846;51.482;7.224;2023-04-24T21:54:11;14.95;;;5.78;;
3659;SDS011;1846;51.482;7.224;2023-04-24T21:56:40;13.30;;;5.63;;
3659;SDS011;1846;51.482;7.224;2023-04-24T21:59:27;10.45;;;5.75;;
3659;SDS011;1846;51.482;7.224;2023-04-24T22:02:19;12.00;;;5.70;;
3659;SDS011;1846;51.482;7.224;2023-04-24T22:05:13;13.57;;;5.60;;
3659;SDS011;1846;51.482;7.224;2023-04-24T22:10:47;18.70;;;6.25;;
3659;SDS011;1846;51.482;7.224;2023-04-24T22:13:19;12.90;;;6.07;;
3659;SDS011;1846;51.482;7.224;2023-04-24T22:16:01;10.60;;;5.60;;
3659;SDS011;1846;51.482;7.224;2023-04-24T22:18:48;18.27;;;6.55;;
3659;SDS011;1846;51.482;7.224;2023-04-24T22:21:19;17.08;;;6.80;;
3659;SDS011;1846;51.482;7.224;2023-04-24T22:30:14;15.68;;;5.50;;
3659;SDS011;1846;51.482;7.224;2023-04-24T22:32:52;12.48;;;6.10;;
3659;SDS011;1846;51.482;7.224;2023-04-24T22:35:33;11.50;;;6.10;;
3659;SDS011;1846;51.482;7.224;2023-04-24T22:38:24;15.38;;;6.55;;
3659;SDS011;1846;51.482;7.224;2023-04-24T22:41:02;12.47;;;5.20;;
3659;SDS011;1846;51.482;7.224;2023-04-24T22:43:41;9.90;;;5.65;;
3659;SDS011;1846;51.482;7.224;2023-04-24T22:46:19;9.63;;;5.60;;
3659;SDS011;1846;51.482;7.224;2023-04-24T22:48:55;11.13;;;6.50;;
3659;SDS011;1846;51.482;7.224;2023-04-24T22:51:51;12.63;;;5.30;;
3659;SDS011;1846;51.482;7.224;2023-04-24T22:54:29;10.93;;;6.20;;
3659;SDS011;1846;51.482;7.224;2023-04-24T23:00:09;16.08;;;5.60;;
3659;SDS011;1846;51.482;7.224;2023-04-24T23:03:03;29.10;;;6.10;;
3659;SDS011;1846;51.482;7.224;2023-04-24T23:05:40;9.45;;;5.47;;
3659;SDS011;1846;51.482;7.224;2023-04-24T23:08:29;15.35;;;6.00;;
3659;SDS011;1846;51.482;7.224;2023-04-24T23:11:00;14.38;;;5.93;;
3659;SDS011;1846;51.482;7.224;2023-04-24T23:16:42;20.77;;;6.20;;
3659;SDS011;1846;51.482;7.224;2023-04-24T23:19:13;15.80;;;6.68;;
3659;SDS011;1846;51.482;7.224;2023-04-24T23:21:58;11.80;;;6.40;;
3659;SDS011;1846;51.482;7.224;2023-04-24T23:24:31;13.15;;;6.00;;
3659;SDS011;1846;51.482;7.224;2023-04-24T23:27:14;13.27;;;5.90;;
3659;SDS011;1846;51.482;7.224;2023-04-24T23:33:00;14.52;;;5.95;;
3659;SDS011;1846;51.482;7.224;2023-04-24T23:35:30;14.60;;;6.43;;
3659;SDS011;1846;51.482;7.224;2023-04-24T23:38:22;13.15;;;6.35;;
3659;SDS011;1846;51.482;7.224;2023-04-24T23:40:59;14.70;;;5.68;;
3659;SDS011;1846;51.482;7.224;2023-04-24T23:43:40;15.23;;;5.47;;
3659;SDS011;1846;51.482;7.224;2023-04-24T23:46:13;12.20;;;6.93;;
3659;SDS011;1846;51.482;7.224;2023-04-24T23:48:57;10.70;;;5.80;;
3659;SDS011;1846;51.482;7.224;2023-04-24T23:54:14;13.77;;;5.90;;
3659;SDS011;1846;51.482;7.224;2023-04-24T23:56:47;16.52;;;6.68;;
3659;SDS011;1846;51.482;7.224;2023-04-24T23:59:53;13.25;;;5.55;;
